Time;durP1;ratioP1;P1;durP2;ratioP2;P2;SDS_P1;SDS_P2;PMS_P1;PMS_P2;Temp;Humidity;BMP_temperature;BMP_pressure;BME280_temperature;BME280_humidity;BME280_pressure;Samples;Min_cycle;Max_cycle;Signal;HPM_P1;HPM_P2
2021/07/16 04:59:04;;;;;;;5.17;3.80;;;;;;;25.40;60.56;98093.38;1713612;78;21049;-80
2021/07/16 05:01:32;;;;;;;5.03;3.98;;;;;;;25.49;60.10;98096.75;1741646;82;20918;-73
2021/07/16 05:04:01;;;;;;;7.10;4.60;;;;;;;25.54;59.94;98094.23;1742991;82;21522;-78
2021/07/16 05:06:30;;;;;;;8.80;4.60;;;;;;;25.61;59.84;98096.45;1741002;82;22279;-77
2021/07/16 05:09:00;;;;;;;7.25;3.77;;;;;;;25.67;58.91;98095.28;1743063;81;20926;-80
2021/07/16 05:11:30;;;;;;;6.33;5.00;;;;;;;25.75;59.35;98099.22;1743340;82;20933;-79
2021/07/16 05:13:59;;;;;;;7.58;6.83;;;;;;;25.84;59.72;98102.08;1745449;82;20949;-78
2021/07/16 05:16:25;;;;;;;9.85;8.35;;;;;;;25.95;59.14;98108.31;1747550;81;20878;-75
2021/07/16 05:18:52;;;;;;;8.98;8.18;;;;;;;26.08;58.91;98120.41;1745379;82;22018;-77
2021/07/16 05:21:18;;;;;;;7.50;6.75;;;;;;;26.19;58.67;98115.62;1745226;82;20914;-78
2021/07/16 05:23:46;;;;;;;6.85;5.47;;;;;;;26.30;58.26;98113.59;1743796;82;20839;-80
2021/07/16 05:26:13;;;;;;;6.42;4.70;;;;;;;26.40;58.08;98110.92;1739764;81;20929;-77
2021/07/16 05:28:39;;;;;;;5.10;4.60;;;;;;;26.48;57.00;98112.06;1739788;82;20926;-80
2021/07/16 05:31:06;;;;;;;7.37;4.15;;;;;;;26.55;57.43;98108.77;1739844;82;21886;-80
2021/07/16 05:33:34;;;;;;;4.58;4.10;;;;;;;26.65;57.33;98109.17;1739611;82;20882;-78
2021/07/16 05:36:00;;;;;;;4.80;2.77;;;;;;;26.77;56.94;98101.61;1739737;82;20926;-78
2021/07/16 05:38:27;;;;;;;26.00;4.40;;;;;;;26.90;56.11;98095.19;1739968;82;20891;-78
2021/07/16 05:40:54;;;;;;;12.68;4.40;;;;;;;26.99;55.54;98093.36;1739747;81;20882;-76
2021/07/16 05:43:21;;;;;;;6.92;3.37;;;;;;;27.10;55.27;98090.96;1739509;82;21126;-77
2021/07/16 05:45:49;;;;;;;7.72;3.67;;;;;;;27.22;55.02;98085.90;1739628;81;20938;-80
2021/07/16 05:48:16;;;;;;;8.88;4.83;;;;;;;27.37;55.38;98087.02;1740276;82;20939;-76
2021/07/16 05:50:44;;;;;;;5.28;4.45;;;;;;;27.55;54.82;98086.78;1739569;82;20954;-80
2021/07/16 05:53:11;;;;;;;6.33;3.70;;;;;;;27.72;54.35;98084.33;1740051;81;20918;-72
2021/07/16 05:55:38;;;;;;;3.75;2.92;;;;;;;27.88;53.99;98083.75;1739744;81;21534;-75
2021/07/16 05:58:05;;;;;;;6.08;3.02;;;;;;;28.04;53.21;98084.28;1739522;82;20903;-73
2021/07/16 06:00:33;;;;;;;7.55;3.40;;;;;;;28.18;52.32;98091.91;1739967;82;20973;-72
2021/07/16 06:03:00;;;;;;;7.40;3.90;;;;;;;28.32;52.13;98084.30;1739975;82;20945;-72
2021/07/16 06:05:27;;;;;;;13.98;10.63;;;;;;;28.43;52.09;98084.95;1740259;82;20914;-74
2021/07/16 06:07:53;;;;;;;8.70;6.08;;;;;;;28.58;51.87;98081.83;1739934;82;21504;-73
2021/07/16 06:10:21;;;;;;;12.85;8.58;;;;;;;28.71;51.32;98077.54;1739965;81;20930;-74
2021/07/16 06:12:48;;;;;;;4.33;3.90;;;;;;;28.87;51.27;98084.87;1739913;82;20918;-72
2021/07/16 06:15:15;;;;;;;61.30;29.75;;;;;;;29.01;51.33;98080.33;1739997;82;20937;-78
2021/07/16 06:17:43;;;;;;;13.05;8.13;;;;;;;29.15;50.79;98082.89;1740000;82;20878;-77
2021/07/16 06:20:11;;;;;;;9.48;7.10;;;;;;;29.25;50.36;98083.73;1740256;82;21092;-77
2021/07/16 06:22:39;;;;;;;4.85;4.35;;;;;;;29.32;49.54;98080.34;1739879;82;20836;-78
2021/07/16 06:25:06;;;;;;;5.47;3.55;;;;;;;29.34;49.03;98083.20;1740448;81;20926;-78
2021/07/16 06:27:33;;;;;;;3.45;2.30;;;;;;;29.35;48.51;98077.11;1740088;82;21411;-74
2021/07/16 06:29:59;;;;;;;17.02;15.50;;;;;;;29.33;48.90;98079.28;1740161;82;21586;-75
2021/07/16 06:32:25;;;;;;;13.40;9.20;;;;;;;29.32;48.88;98075.66;1740578;82;21875;-74
2021/07/16 06:34:53;;;;;;;4.90;3.42;;;;;;;29.33;48.89;98079.28;1740685;81;20851;-71
2021/07/16 06:37:22;;;;;;;19.57;17.75;;;;;;;29.36;48.70;98078.81;1740348;82;20883;-76
2021/07/16 06:39:49;;;;;;;12.30;11.28;;;;;;;29.41;48.62;98080.32;1739958;82;20934;-72
2021/07/16 06:42:16;;;;;;;9.98;7.37;;;;;;;29.53;48.82;98078.95;1740087;82;21308;-77
2021/07/16 06:44:43;;;;;;;5.65;4.20;;;;;;;29.66;48.30;98080.69;1739934;82;21402;-69
2021/07/16 06:47:12;;;;;;;3.27;2.52;;;;;;;29.77;47.32;98076.23;1739772;81;21443;-70
2021/07/16 06:49:40;;;;;;;5.67;2.80;;;;;;;29.83;47.05;98077.56;1740048;81;20887;-70
2021/07/16 06:52:08;;;;;;;6.97;3.62;;;;;;;29.83;45.57;98081.71;1739967;82;20910;-75
2021/07/16 06:54:34;;;;;;;6.17;2.92;;;;;;;29.86;46.42;98081.23;1740166;82;20862;-70
2021/07/16 06:57:01;;;;;;;3.72;3.30;;;;;;;29.89;46.73;98082.66;1740035;82;21125;-70
2021/07/16 06:59:27;;;;;;;8.33;4.70;;;;;;;29.93;46.79;98083.02;1742991;81;20996;-70
2021/07/16 07:01:54;;;;;;;12.45;7.90;;;;;;;30.00;46.31;98079.60;1758454;81;21362;-71
2021/07/16 07:04:23;;;;;;;7.50;4.10;;;;;;;30.09;46.20;98076.78;1758545;81;20941;-70
2021/07/16 07:06:50;;;;;;;11.15;5.22;;;;;;;30.20;46.59;98078.70;1758792;81;20882;-69
2021/07/16 07:09:18;;;;;;;4.78;4.30;;;;;;;30.32;46.32;98077.84;1758680;81;21085;-69
2021/07/16 07:11:47;;;;;;;8.95;5.75;;;;;;;30.46;46.29;98068.22;1758951;81;20917;-68
2021/07/16 07:14:15;;;;;;;3.22;2.55;;;;;;;30.63;46.16;98062.25;1758745;81;21350;-68
2021/07/16 07:16:43;;;;;;;10.60;9.43;;;;;;;30.75;44.85;98062.75;1758694;81;20981;-70
2021/07/16 07:19:11;;;;;;;9.93;7.58;;;;;;;30.87;45.32;98066.34;1758551;81;20922;-69
2021/07/16 07:21:44;;;;;;;7.25;6.55;;;;;;;31.01;45.39;98068.84;1758569;81;21081;-69
2021/07/16 07:24:12;;;;;;;3.40;2.83;;;;;;;31.19;44.65;98065.02;1758243;81;20925;-71
2021/07/16 07:26:42;;;;;;;6.33;2.83;;;;;;;31.37;43.95;98065.36;1758744;81;21525;-70
2021/07/16 07:29:11;;;;;;;4.17;2.65;;;;;;;31.52;42.94;98064.26;1758471;81;20917;-69
2021/07/16 07:31:38;;;;;;;6.80;5.53;;;;;;;31.60;43.08;98070.81;1758786;81;21536;-70
2021/07/16 07:34:05;;;;;;;6.22;2.92;;;;;;;31.65;42.78;98070.89;1759266;81;21723;-72
2021/07/16 07:36:32;;;;;;;3.55;3.25;;;;;;;31.66;42.69;98068.42;1758385;81;20937;-70
2021/07/16 07:38:58;;;;;;;4.12;2.67;;;;;;;31.67;42.92;98064.53;1758933;81;20924;-71
2021/07/16 07:41:27;;;;;;;5.00;2.47;;;;;;;31.65;42.52;98059.78;1758576;81;21319;-70
2021/07/16 07:43:56;;;;;;;2.33;2.02;;;;;;;31.61;42.51;98068.30;1758336;81;20865;-81
2021/07/16 07:46:26;;;;;;;4.53;3.35;;;;;;;31.54;42.13;98075.97;1758308;81;21904;-74
2021/07/16 07:48:56;;;;;;;4.15;2.30;;;;;;;31.49;43.87;98073.91;1758515;81;20843;-73
2021/07/16 07:51:22;;;;;;;3.55;2.40;;;;;;;31.49;43.50;98078.08;1758608;81;20913;-74
2021/07/16 07:53:49;;;;;;;3.47;2.20;;;;;;;31.52;42.78;98076.75;1758501;81;20874;-73
2021/07/16 07:56:15;;;;;;;5.20;2.80;;;;;;;31.54;43.14;98075.97;1758614;81;21410;-74
2021/07/16 07:58:42;;;;;;;5.42;3.08;;;;;;;31.57;42.79;98068.53;1758417;81;21114;-73
2021/07/16 08:01:09;;;;;;;7.75;3.90;;;;;;;31.60;43.88;98069.98;1758391;81;21004;-74
2021/07/16 08:03:37;;;;;;;3.50;2.52;;;;;;;31.64;43.39;98069.19;1758637;81;20881;-72
2021/07/16 08:06:06;;;;;;;5.40;2.65;;;;;;;31.73;43.28;98066.03;1758465;81;20885;-73
2021/07/16 08:08:32;;;;;;;3.65;3.10;;;;;;;31.83;43.46;98073.13;1758504;81;21467;-73
2021/07/16 08:11:01;;;;;;;4.08;2.10;;;;;;;31.93;43.16;98077.47;1758534;81;21386;-74
2021/07/16 08:13:30;;;;;;;4.67;2.20;;;;;;;32.00;42.14;98085.06;1758583;81;20941;-74
2021/07/16 08:15:56;;;;;;;4.20;2.10;;;;;;;32.02;41.70;98083.42;1758883;81;20917;-74
2021/07/16 08:18:23;;;;;;;2.75;2.10;;;;;;;31.99;41.71;98083.40;1758887;81;20968;-72
2021/07/16 08:20:49;;;;;;;2.72;2.10;;;;;;;31.93;42.24;98081.63;1758511;81;20933;-73
2021/07/16 08:23:16;;;;;;;3.60;2.22;;;;;;;31.90;41.63;98087.69;1758520;81;21529;-76
2021/07/16 08:25:42;;;;;;;3.00;1.85;;;;;;;31.85;41.89;98091.75;1758494;81;20945;-76
2021/07/16 08:28:09;;;;;;;5.17;2.40;;;;;;;31.76;42.05;98088.56;1758868;81;21004;-76
2021/07/16 08:30:35;;;;;;;5.45;2.37;;;;;;;31.64;41.95;98084.46;1758670;81;20929;-69
2021/07/16 08:33:02;;;;;;;4.90;3.15;;;;;;;31.55;41.86;98080.44;1758645;81;20882;-69
2021/07/16 08:35:30;;;;;;;6.92;3.15;;;;;;;31.49;42.46;98085.57;1758474;81;21129;-69
2021/07/16 08:37:59;;;;;;;4.90;2.42;;;;;;;31.40;42.46;98080.13;1758911;81;20885;-70
2021/07/16 08:40:26;;;;;;;6.10;2.30;;;;;;;31.34;42.28;98082.81;1758543;81;20917;-69
2021/07/16 08:42:52;;;;;;;2.45;2.02;;;;;;;31.30;42.12;98080.23;1758902;81;20968;-70
2021/07/16 08:45:20;;;;;;;4.17;2.37;;;;;;;31.30;42.13;98078.84;1758736;81;21354;-69
2021/07/16 08:47:47;;;;;;;5.33;2.50;;;;;;;31.37;42.98;98086.17;1758861;81;21092;-70
2021/07/16 08:50:15;;;;;;;4.58;2.87;;;;;;;31.45;43.01;98078.83;1758712;81;20869;-70
2021/07/16 08:52:44;;;;;;;5.50;2.62;;;;;;;31.49;43.64;98078.63;1758833;81;20957;-70
2021/07/16 08:55:10;;;;;;;2.65;2.22;;;;;;;31.55;42.57;98076.28;1758376;81;21462;-71
2021/07/16 08:57:38;;;;;;;4.95;2.37;;;;;;;31.62;42.44;98077.50;1758573;81;21016;-70
2021/07/16 09:00:10;;;;;;;3.92;2.42;;;;;;;31.60;41.46;98077.75;1755394;81;21107;-70
2021/07/16 09:02:56;;;;;;;6.85;2.27;;;;;;;31.56;41.59;98075.72;1739716;81;21459;-71
2021/07/16 09:05:32;;;;;;;4.03;2.90;;;;;;;31.52;41.97;98080.91;1739868;81;20925;-70
2021/07/16 09:08:03;;;;;;;6.40;2.67;;;;;;;31.54;43.08;98073.75;1739932;82;20934;-71
2021/07/16 09:10:30;;;;;;;3.83;2.83;;;;;;;31.50;42.18;98078.91;1740175;81;20978;-70
2021/07/16 09:13:03;;;;;;;5.58;4.35;;;;;;;31.47;42.84;98076.63;1739864;81;21517;-69
2021/07/16 09:15:32;;;;;;;3.17;2.87;;;;;;;31.49;42.47;98075.86;1739843;81;20930;-70
2021/07/16 09:18:20;;;;;;;6.10;5.20;;;;;;;31.50;42.52;98071.97;1739948;81;20914;-71
2021/07/16 09:20:46;;;;;;;6.70;3.20;;;;;;;31.54;42.17;98067.64;1740161;81;20890;-70
2021/07/16 09:23:18;;;;;;;2.83;2.60;;;;;;;31.54;42.03;98068.20;1739933;82;20886;-70
2021/07/16 09:25:45;;;;;;;5.42;2.75;;;;;;;31.48;41.51;98063.89;1740285;82;21118;-67
2021/07/16 09:28:25;;;;;;;7.85;3.42;;;;;;;31.41;41.73;98059.06;1739963;82;21395;-71
2021/07/16 09:30:55;;;;;;;2.17;1.98;;;;;;;31.32;42.49;98053.06;1740244;82;20957;-67
2021/07/16 09:33:22;;;;;;;2.67;2.30;;;;;;;31.22;42.52;98052.90;1727410;82;20993;-67
2021/07/16 09:35:51;;;;;;;6.87;3.15;;;;;;;31.09;43.28;98042.09;1740114;81;21466;-67
2021/07/16 09:38:19;;;;;;;3.45;2.02;;;;;;;30.98;43.86;98046.07;1737884;80;21673;-69
2021/07/16 09:40:52;;;;;;;8.23;3.00;;;;;;;30.91;44.29;98048.10;1710657;84;20952;-68
2021/07/16 09:43:23;;;;;;;7.12;2.67;;;;;;;30.88;44.96;98051.36;1715059;79;20942;-68
2021/07/16 09:46:00;;;;;;;3.70;3.10;;;;;;;30.87;44.03;98053.00;1674384;85;20949;-67
2021/07/16 09:48:35;;;;;;;3.45;2.15;;;;;;;30.84;43.53;98057.13;1686457;85;21498;-68
2021/07/16 09:51:23;;;;;;;2.42;2.10;;;;;;;30.79;43.59;98057.00;1676167;85;21129;-67
2021/07/16 09:54:02;;;;;;;3.27;2.08;;;;;;;30.73;43.66;98062.14;1675805;85;20937;-68
2021/07/16 09:56:31;;;;;;;5.70;2.60;;;;;;;30.61;43.97;98065.78;1676051;85;21332;-67
2021/07/16 09:59:17;;;;;;;5.10;2.75;;;;;;;30.49;44.21;98067.73;1675829;85;20981;-67
2021/07/16 10:01:48;;;;;;;3.40;2.40;;;;;;;30.42;44.23;98084.49;1675914;85;20925;-68
2021/07/16 10:04:32;;;;;;;3.70;2.58;;;;;;;30.38;45.86;98071.34;1675919;85;21864;-67
2021/07/16 10:06:55;;;;;;;4.37;3.08;;;;;;;30.36;45.31;98072.96;1675391;85;20909;-68
2021/07/16 10:09:24;;;;;;;3.17;2.52;;;;;;;30.38;45.63;98078.27;1675936;85;20882;-68
2021/07/16 10:11:54;;;;;;;3.45;2.67;;;;;;;30.38;45.72;98081.93;1675837;85;20865;-68
2021/07/16 10:14:20;;;;;;;5.65;2.55;;;;;;;30.39;44.62;98074.45;1675959;85;21362;-68
2021/07/16 10:16:52;;;;;;;3.45;2.40;;;;;;;30.43;44.85;98078.41;1675878;84;20941;-68
2021/07/16 10:19:18;;;;;;;5.55;2.60;;;;;;;30.43;43.76;98075.63;1675834;85;20945;-69
2021/07/16 10:21:46;;;;;;;3.15;2.50;;;;;;;30.42;44.71;98080.89;1676251;85;20917;-69
2021/07/16 10:24:19;;;;;;;3.25;2.90;;;;;;;30.39;45.33;98090.52;1675845;85;20913;-68
2021/07/16 10:26:51;;;;;;;4.10;3.02;;;;;;;30.37;45.72;98089.06;1676183;85;21355;-69
2021/07/16 10:29:45;;;;;;;3.83;2.60;;;;;;;30.36;46.18;98095.68;1674376;85;21745;-67
2021/07/16 10:32:11;;;;;;;;;;;;;;;30.40;45.78;98096.92;1678918;85;21383;-69
2021/07/16 10:34:39;;;;;;;4.62;2.60;;;;;;;30.43;45.27;98095.89;1675935;85;20102;-67
2021/07/16 10:37:12;;;;;;;4.97;3.40;;;;;;;30.44;45.35;98093.39;1686320;84;20955;-67
2021/07/16 10:39:50;;;;;;;4.40;2.72;;;;;;;30.47;45.79;98097.63;1676070;85;20945;-68
2021/07/16 10:42:35;;;;;;;3.20;2.60;;;;;;;30.48;45.80;98091.53;1676025;85;21042;-68
2021/07/16 10:45:04;;;;;;;5.67;2.52;;;;;;;30.48;46.41;98092.39;1675706;85;20949;-67
2021/07/16 10:47:47;;;;;;;5.97;3.22;;;;;;;30.48;46.60;98092.39;1675932;85;20850;-68
2021/07/16 10:50:33;;;;;;;3.70;2.83;;;;;;;30.47;45.10;98089.31;1675809;85;21375;-68
2021/07/16 10:53:02;;;;;;;3.02;2.35;;;;;;;30.44;46.05;98089.80;1675806;85;20981;-68
2021/07/16 10:55:37;;;;;;;2.95;2.47;;;;;;;30.42;45.84;98087.82;1675856;85;21137;-68
2021/07/16 10:58:22;;;;;;;3.90;3.00;;;;;;;30.42;45.80;98094.75;1675768;85;20926;-67
2021/07/16 11:01:01;;;;;;;3.25;2.85;;;;;;;30.40;45.88;98095.54;1675808;85;20913;-67
2021/07/16 11:03:49;;;;;;;5.65;3.12;;;;;;;30.35;45.16;98096.75;1676169;85;20949;-68
2021/07/16 11:06:17;;;;;;;3.72;2.62;;;;;;;30.26;45.24;98097.13;1740226;81;21393;-67
2021/07/16 11:08:51;;;;;;;3.92;2.92;;;;;;;30.14;45.00;98096.28;1740055;81;21125;-68
2021/07/16 11:11:31;;;;;;;3.55;3.20;;;;;;;30.04;46.08;98101.59;1739893;82;20938;-67
2021/07/16 11:13:59;;;;;;;5.00;2.83;;;;;;;29.93;47.04;98099.62;1729707;82;20941;-67
2021/07/16 11:16:34;;;;;;;5.35;2.92;;;;;;;29.80;47.68;98098.80;1739807;81;20997;-68
2021/07/16 11:19:16;;;;;;;4.28;2.75;;;;;;;29.72;48.39;98096.31;1737793;82;20917;-67
2021/07/16 11:21:51;;;;;;;4.00;2.50;;;;;;;29.60;48.52;98096.86;1738841;82;20899;-68
2021/07/16 11:24:22;;;;;;;3.45;2.62;;;;;;;29.52;48.40;98096.11;1740152;82;21497;-68
2021/07/16 11:27:07;;;;;;;2.95;2.75;;;;;;;29.44;48.42;98100.59;1740771;82;20949;-68
2021/07/16 11:29:45;;;;;;;3.02;2.62;;;;;;;29.36;48.80;98099.55;1739353;81;21384;-68
2021/07/16 11:32:25;;;;;;;4.30;2.98;;;;;;;29.27;48.52;98096.81;1739772;82;20878;-68
2021/07/16 11:35:07;;;;;;;3.98;3.30;;;;;;;29.18;48.30;98101.27;1738174;82;21491;-67
2021/07/16 11:37:48;;;;;;;5.25;3.30;;;;;;;29.09;49.73;98099.90;1740748;82;20914;-67
2021/07/16 11:40:24;;;;;;;8.78;3.80;;;;;;;29.04;50.45;98101.12;1738166;82;20886;-67
2021/07/16 11:42:59;;;;;;;8.90;3.55;;;;;;;28.97;51.39;98099.00;1740042;81;20954;-67
2021/07/16 11:45:29;;;;;;;6.97;2.98;;;;;;;28.91;51.77;98102.69;1737904;81;21360;-67
2021/07/16 11:47:59;;;;;;;6.05;2.77;;;;;;;28.87;51.48;98098.69;1740587;81;21406;-67
2021/07/16 11:50:26;;;;;;;3.02;2.72;;;;;;;28.80;51.78;98100.99;1740374;82;20820;-67
2021/07/16 11:52:54;;;;;;;8.38;3.00;;;;;;;28.75;51.50;98095.32;1737889;82;20871;-67
2021/07/16 11:55:26;;;;;;;4.30;3.12;;;;;;;28.69;52.06;98107.30;1740128;82;20903;-67
2021/07/16 11:58:01;;;;;;;4.92;3.02;;;;;;;28.63;52.00;98110.47;1737728;82;20918;-68
2021/07/16 12:00:32;;;;;;;6.22;3.17;;;;;;;28.58;52.29;98113.05;1737974;81;21099;-67
2021/07/16 12:03:00;;;;;;;5.03;3.33;;;;;;;28.53;52.54;98120.33;1738370;82;20965;-66
2021/07/16 12:05:27;;;;;;;3.02;2.83;;;;;;;28.48;52.51;98117.70;1739297;82;21013;-68
2021/07/16 12:07:54;;;;;;;7.05;3.05;;;;;;;28.45;52.38;98118.16;1737841;82;20890;-67
2021/07/16 12:10:22;;;;;;;4.85;2.33;;;;;;;28.42;51.29;98115.85;1738028;82;20970;-67
2021/07/16 12:12:49;;;;;;;3.58;2.60;;;;;;;28.37;51.20;98117.08;1738006;82;21129;-67
2021/07/16 12:15:21;;;;;;;3.83;3.02;;;;;;;28.32;51.34;98113.30;1738127;82;21008;-67
2021/07/16 12:17:55;;;;;;;5.83;2.27;;;;;;;28.29;51.24;98113.24;1740212;82;20855;-67
2021/07/16 12:20:31;;;;;;;3.22;2.70;;;;;;;28.25;50.79;98112.00;1741157;82;20871;-66
2021/07/16 12:22:59;;;;;;;3.62;2.95;;;;;;;28.21;51.07;98111.61;1740693;82;20899;-68
2021/07/16 12:25:26;;;;;;;3.80;2.50;;;;;;;28.19;50.66;98108.76;1738242;82;21742;-67
2021/07/16 12:28:06;;;;;;;3.27;2.12;;;;;;;28.17;50.71;98102.63;1740581;81;20859;-67
2021/07/16 12:30:32;;;;;;;6.60;2.85;;;;;;;28.17;51.06;98109.53;1741163;82;20843;-67
2021/07/16 12:33:04;;;;;;;6.45;2.33;;;;;;;28.17;51.13;98108.16;1740660;82;21491;-67
2021/07/16 12:35:30;;;;;;;4.72;2.58;;;;;;;28.17;51.19;98105.39;1740280;82;20912;-67
2021/07/16 12:38:06;;;;;;;4.85;2.83;;;;;;;28.20;50.93;98107.70;1740056;81;21126;-68
2021/07/16 12:40:32;;;;;;;3.22;2.40;;;;;;;28.24;50.77;98103.42;1740223;82;20855;-68
2021/07/16 12:43:12;;;;;;;5.12;2.80;;;;;;;28.29;50.62;98100.81;1739967;82;20891;-68
2021/07/16 12:45:53;;;;;;;3.15;2.45;;;;;;;28.34;50.61;98099.59;1731877;81;20883;-67
2021/07/16 12:48:35;;;;;;;3.17;2.87;;;;;;;28.37;49.79;98096.37;1746198;81;20867;-67
2021/07/16 12:51:12;;;;;;;7.30;3.40;;;;;;;28.41;50.24;98094.85;1753032;81;21110;-67
2021/07/16 12:53:52;;;;;;;3.65;2.45;;;;;;;28.45;50.23;98091.91;1752130;81;20930;-67
2021/07/16 12:56:28;;;;;;;3.42;2.95;;;;;;;28.54;50.02;98097.13;1753152;81;20977;-69
2021/07/16 12:58:56;;;;;;;3.02;2.35;;;;;;;28.60;50.03;98086.06;1752400;81;21387;-68
2021/07/16 13:01:32;;;;;;;3.55;3.00;;;;;;;28.65;49.85;98082.61;1753418;81;20910;-68
2021/07/16 13:04:15;;;;;;;4.67;3.10;;;;;;;28.68;49.23;98079.38;1750938;81;21186;-68
2021/07/16 13:06:44;;;;;;;8.95;3.47;;;;;;;28.73;47.85;98074.00;1740749;82;20918;-68
2021/07/16 13:09:33;;;;;;;3.10;2.80;;;;;;;28.80;48.67;98078.88;1741043;81;21364;-67
2021/07/16 13:12:12;;;;;;;3.85;3.37;;;;;;;28.83;48.81;98078.42;1740785;82;20978;-69
2021/07/16 13:14:53;;;;;;;4.15;3.75;;;;;;;28.91;48.60;98075.05;1740923;81;20923;-68
2021/07/16 13:17:33;;;;;;;5.97;2.77;;;;;;;28.94;48.09;98069.05;1740937;81;20907;-67
2021/07/16 13:20:18;;;;;;;3.33;2.95;;;;;;;28.99;48.50;98074.72;1740878;82;20930;-68
2021/07/16 13:22:47;;;;;;;4.22;2.67;;;;;;;29.05;47.74;98066.88;1740808;82;20913;-68
2021/07/16 13:25:16;;;;;;;3.95;3.22;;;;;;;29.10;46.83;98068.39;1740877;82;20918;-67
2021/07/16 13:27:46;;;;;;;3.17;2.58;;;;;;;29.14;46.70;98065.47;1741146;82;21308;-68
2021/07/16 13:30:13;;;;;;;3.00;2.65;;;;;;;29.19;46.84;98065.63;1740933;82;21159;-68
2021/07/16 13:32:44;;;;;;;3.35;2.67;;;;;;;29.25;46.13;98061.61;1740829;82;20911;-66
2021/07/16 13:35:11;;;;;;;3.27;2.50;;;;;;;29.29;45.59;98062.29;1741150;82;20930;-68
2021/07/16 13:37:38;;;;;;;2.50;2.30;;;;;;;29.32;45.34;98059.61;1740770;82;20977;-68
2021/07/16 13:40:07;;;;;;;4.92;2.05;;;;;;;29.32;44.76;98059.61;1740941;81;20831;-67
2021/07/16 13:42:36;;;;;;;4.35;2.62;;;;;;;29.32;45.74;98054.91;1741247;82;21103;-68
2021/07/16 13:45:04;;;;;;;5.80;2.02;;;;;;;29.34;45.81;98056.05;1740571;81;20871;-66
2021/07/16 13:47:30;;;;;;;3.00;2.55;;;;;;;29.37;45.83;98052.81;1740881;81;20922;-67
2021/07/16 13:49:58;;;;;;;3.00;2.55;;;;;;;29.39;45.70;98056.21;1740868;81;20926;-67
2021/07/16 13:52:24;;;;;;;3.25;1.90;;;;;;;29.39;45.26;98052.06;1741028;82;20914;-66
2021/07/16 13:54:50;;;;;;;3.52;2.02;;;;;;;29.40;41.78;98044.05;1741021;81;21913;-67
2021/07/16 13:57:21;;;;;;;2.20;1.92;;;;;;;29.36;40.00;98045.06;1740982;82;20918;-67
2021/07/16 13:59:48;;;;;;;4.28;2.22;;;;;;;29.34;41.42;98051.91;1740764;81;21020;-68
2021/07/16 14:02:14;;;;;;;2.72;2.10;;;;;;;29.31;42.30;98051.00;1740744;82;20925;-68
2021/07/16 14:04:42;;;;;;;2.60;2.08;;;;;;;29.28;42.47;98052.33;1740883;81;20878;-67
2021/07/16 14:07:09;;;;;;;1.90;1.77;;;;;;;29.26;42.88;98052.25;1741180;82;21131;-68
2021/07/16 14:09:35;;;;;;;2.65;2.20;;;;;;;29.24;43.95;98044.73;1732316;82;21459;-67
2021/07/16 14:12:04;;;;;;;3.80;2.45;;;;;;;29.23;44.18;98048.57;1740888;81;21304;-67
2021/07/16 14:14:30;;;;;;;3.17;2.17;;;;;;;29.24;44.14;98039.20;1740712;82;20926;-68
2021/07/16 14:16:57;;;;;;;3.02;1.95;;;;;;;29.24;44.72;98037.83;1740761;82;21024;-68
2021/07/16 14:19:25;;;;;;;5.78;1.98;;;;;;;29.21;44.90;98032.77;1740803;81;20882;-67
2021/07/16 14:21:51;;;;;;;2.80;2.08;;;;;;;29.17;45.07;98029.05;1740756;82;21696;-67
